sensor_id;sensor_type;location;lat;lon;timestamp;temperature;humidity
76759;DHT22;65701;45.588;5.186;2023-03-16T06:01:09;4.44;64.50
76759;DHT22;65701;45.588;5.186;2023-03-16T06:03:37;4.44;64.66
76759;DHT22;65701;45.588;5.186;2023-03-16T06:06:02;4.45;64.78
76759;DHT22;65701;45.588;5.186;2023-03-16T06:08:28;4.46;64.91
76759;DHT22;65701;45.588;5.186;2023-03-16T06:10:54;4.45;65.14
76759;DHT22;65701;45.588;5.186;2023-03-16T06:13:19;4.44;65.12
76759;DHT22;65701;45.588;5.186;2023-03-16T06:15:45;4.41;65.11
76759;DHT22;65701;45.588;5.186;2023-03-16T06:18:11;4.44;64.93
76759;DHT22;65701;45.588;5.186;2023-03-16T06:20:36;4.49;64.95
76759;DHT22;65701;45.588;5.186;2023-03-16T06:23:03;4.61;64.94
76759;DHT22;65701;45.588;5.186;2023-03-16T06:25:29;4.66;64.74
76759;DHT22;65701;45.588;5.186;2023-03-16T06:27:54;4.75;64.22
76759;DHT22;65701;45.588;5.186;2023-03-16T06:30:20;4.70;63.63
76759;DHT22;65701;45.588;5.186;2023-03-16T06:32:45;4.86;63.01
76759;DHT22;65701;45.588;5.186;2023-03-16T06:35:11;4.90;62.77
76759;DHT22;65701;45.588;5.186;2023-03-16T06:37:37;4.99;62.40
76759;DHT22;65701;45.588;5.186;2023-03-16T06:40:03;5.08;62.33
76759;DHT22;65701;45.588;5.186;2023-03-16T06:42:29;5.16;62.14
76759;DHT22;65701;45.588;5.186;2023-03-16T06:44:54;5.28;61.98
76759;DHT22;65701;45.588;5.186;2023-03-16T06:47:21;5.39;62.02
76759;DHT22;65701;45.588;5.186;2023-03-16T06:49:46;5.42;61.99
76759;DHT22;65701;45.588;5.186;2023-03-16T06:52:12;5.58;61.99
76759;DHT22;65701;45.588;5.186;2023-03-16T06:54:39;5.76;61.94
76759;DHT22;65701;45.588;5.186;2023-03-16T06:57:05;5.97;61.91
76759;DHT22;65701;45.588;5.186;2023-03-16T06:59:31;6.18;61.50
76759;DHT22;65701;45.588;5.186;2023-03-16T07:01:56;6.37;61.44
76759;DHT22;65701;45.588;5.186;2023-03-16T07:04:22;6.56;61.14
76759;DHT22;65701;45.588;5.186;2023-03-16T07:06:47;6.73;60.90
76759;DHT22;65701;45.588;5.186;2023-03-16T07:09:13;6.93;60.81
76759;DHT22;65701;45.588;5.186;2023-03-16T07:11:39;7.15;60.63
76759;DHT22;65701;45.588;5.186;2023-03-16T07:14:05;7.34;60.38
76759;DHT22;65701;45.588;5.186;2023-03-16T07:16:31;7.55;60.33
76759;DHT22;65701;45.588;5.186;2023-03-16T07:18:56;7.72;60.02
76759;DHT22;65701;45.588;5.186;2023-03-16T07:21:22;7.90;60.04
76759;DHT22;65701;45.588;5.186;2023-03-16T07:23:48;8.04;59.30
76759;DHT22;65701;45.588;5.186;2023-03-16T07:26:13;8.45;58.69
76759;DHT22;65701;45.588;5.186;2023-03-16T07:28:39;8.87;58.18
76759;DHT22;65701;45.588;5.186;2023-03-16T07:31:05;9.38;57.36
76759;DHT22;65701;45.588;5.186;2023-03-16T07:33:32;9.53;56.86
76759;DHT22;65701;45.588;5.186;2023-03-16T07:35:58;9.50;56.22
76759;DHT22;65701;45.588;5.186;2023-03-16T07:38:23;9.38;55.56
76759;DHT22;65701;45.588;5.186;2023-03-16T07:40:49;9.25;55.41
76759;DHT22;65701;45.588;5.186;2023-03-16T07:43:16;9.41;55.59
76759;DHT22;65701;45.588;5.186;2023-03-16T07:45:49;9.50;55.87
76759;DHT22;65701;45.588;5.186;2023-03-16T07:48:15;9.58;55.58
76759;DHT22;65701;45.588;5.186;2023-03-16T07:50:41;9.65;55.58
76759;DHT22;65701;45.588;5.186;2023-03-16T07:53:07;9.80;55.60
76759;DHT22;65701;45.588;5.186;2023-03-16T07:55:32;9.91;55.63
76759;DHT22;65701;45.588;5.186;2023-03-16T07:58:00;10.04;55.66
76759;DHT22;65701;45.588;5.186;2023-03-16T08:00:26;10.18;55.60
76759;DHT22;65701;45.588;5.186;2023-03-16T08:02:52;10.32;55.29
76759;DHT22;65701;45.588;5.186;2023-03-16T08:05:19;10.44;54.64
76759;DHT22;65701;45.588;5.186;2023-03-16T08:07:45;10.46;54.33
76759;DHT22;65701;45.588;5.186;2023-03-16T08:10:11;10.68;54.28
76759;DHT22;65701;45.588;5.186;2023-03-16T08:12:37;10.76;54.22
76759;DHT22;65701;45.588;5.186;2023-03-16T08:15:02;10.87;54.11
76759;DHT22;65701;45.588;5.186;2023-03-16T08:17:30;10.87;53.78
76759;DHT22;65701;45.588;5.186;2023-03-16T08:19:55;10.96;53.71
76759;DHT22;65701;45.588;5.186;2023-03-16T08:22:21;11.13;53.98
76759;DHT22;65701;45.588;5.186;2023-03-16T08:24:46;11.25;54.17
76759;DHT22;65701;45.588;5.186;2023-03-16T08:27:13;11.39;53.84
76759;DHT22;65701;45.588;5.186;2023-03-16T08:29:40;11.54;53.77
76759;DHT22;65701;45.588;5.186;2023-03-16T08:32:06;11.73;54.01
76759;DHT22;65701;45.588;5.186;2023-03-16T08:34:31;11.90;54.28
76759;DHT22;65701;45.588;5.186;2023-03-16T08:36:58;12.10;53.85
76759;DHT22;65701;45.588;5.186;2023-03-16T08:39:23;12.27;53.98
76759;DHT22;65701;45.588;5.186;2023-03-16T08:41:49;12.52;54.40
76759;DHT22;65701;45.588;5.186;2023-03-16T08:44:15;12.63;53.44
76759;DHT22;65701;45.588;5.186;2023-03-16T08:46:41;12.79;53.35
76759;DHT22;65701;45.588;5.186;2023-03-16T08:49:07;12.83;53.13
76759;DHT22;65701;45.588;5.186;2023-03-16T08:51:32;13.00;53.22
76759;DHT22;65701;45.588;5.186;2023-03-16T08:53:58;13.14;53.02
76759;DHT22;65701;45.588;5.186;2023-03-16T08:56:24;13.30;53.00
76759;DHT22;65701;45.588;5.186;2023-03-16T08:58:50;13.42;52.94
76759;DHT22;65701;45.588;5.186;2023-03-16T09:01:17;13.51;52.25
76759;DHT22;65701;45.588;5.186;2023-03-16T09:03:43;13.62;52.16
76759;DHT22;65701;45.588;5.186;2023-03-16T09:06:14;13.75;51.90
76759;DHT22;65701;45.588;5.186;2023-03-16T09:08:40;13.85;51.94
76759;DHT22;65701;45.588;5.186;2023-03-16T09:11:10;13.97;51.98
76759;DHT22;65701;45.588;5.186;2023-03-16T09:13:37;14.04;52.07
76759;DHT22;65701;45.588;5.186;2023-03-16T09:16:04;14.21;52.42
76759;DHT22;65701;45.588;5.186;2023-03-16T09:18:31;14.30;51.66
76759;DHT22;65701;45.588;5.186;2023-03-16T09:21:02;14.44;51.82
76759;DHT22;65701;45.588;5.186;2023-03-16T09:23:29;14.61;51.52
76759;DHT22;65701;45.588;5.186;2023-03-16T09:26:00;14.71;51.01
76759;DHT22;65701;45.588;5.186;2023-03-16T09:28:28;14.82;50.86
76759;DHT22;65701;45.588;5.186;2023-03-16T09:30:55;14.87;50.47
76759;DHT22;65701;45.588;5.186;2023-03-16T09:33:22;14.99;50.44
76759;DHT22;65701;45.588;5.186;2023-03-16T09:35:48;15.07;49.58
76759;DHT22;65701;45.588;5.186;2023-03-16T09:38:15;15.14;49.88
76759;DHT22;65701;45.588;5.186;2023-03-16T09:40:42;15.27;49.25
76759;DHT22;65701;45.588;5.186;2023-03-16T09:48:19;15.48;48.40
76759;DHT22;65701;45.588;5.186;2023-03-16T09:50:46;15.54;48.70
76759;DHT22;65701;45.588;5.186;2023-03-16T09:53:29;15.68;48.77
76759;DHT22;65701;45.588;5.186;2023-03-16T09:56:26;15.79;48.04
76759;DHT22;65701;45.588;5.186;2023-03-16T09:58:54;15.88;47.44
76759;DHT22;65701;45.588;5.186;2023-03-16T10:01:25;15.89;47.48
76759;DHT22;65701;45.588;5.186;2023-03-16T10:06:24;15.95;46.81
76759;DHT22;65701;45.588;5.186;2023-03-16T10:08:52;16.00;46.57
76759;DHT22;65701;45.588;5.186;2023-03-16T10:14:01;16.12;46.70
76759;DHT22;65701;45.588;5.186;2023-03-16T10:16:33;16.17;46.36
76759;DHT22;65701;45.588;5.186;2023-03-16T10:19:24;16.18;45.82
76759;DHT22;65701;45.588;5.186;2023-03-16T10:21:55;16.20;46.30
76759;DHT22;65701;45.588;5.186;2023-03-16T10:27:15;16.21;45.63
76759;DHT22;65701;45.588;5.186;2023-03-16T10:29:42;16.16;45.10
76759;DHT22;65701;45.588;5.186;2023-03-16T10:32:16;16.27;45.17
76759;DHT22;65701;45.588;5.186;2023-03-16T10:34:47;16.30;45.77
76759;DHT22;65701;45.588;5.186;2023-03-16T10:37:17;16.35;45.41
76759;DHT22;65701;45.588;5.186;2023-03-16T10:39:42;16.31;44.83
76759;DHT22;65701;45.588;5.186;2023-03-16T10:42:19;16.30;45.10
76759;DHT22;65701;45.588;5.186;2023-03-16T10:44:46;16.34;44.83
76759;DHT22;65701;45.588;5.186;2023-03-16T10:47:23;16.25;44.83
76759;DHT22;65701;45.588;5.186;2023-03-16T10:49:49;16.30;44.63
76759;DHT22;65701;45.588;5.186;2023-03-16T10:55:16;16.43;45.70
76759;DHT22;65701;45.588;5.186;2023-03-16T10:57:48;16.51;45.52
76759;DHT22;65701;45.588;5.186;2023-03-16T11:02:50;16.34;44.35
76759;DHT22;65701;45.588;5.186;2023-03-16T11:07:52;16.44;44.15
76759;DHT22;65701;45.588;5.186;2023-03-16T11:10:29;16.27;43.63
76759;DHT22;65701;45.588;5.186;2023-03-16T11:13:01;16.31;43.52
76759;DHT22;65701;45.588;5.186;2023-03-16T11:15:36;16.30;43.00
76759;DHT22;65701;45.588;5.186;2023-03-16T11:18:03;16.41;43.43
76759;DHT22;65701;45.588;5.186;2023-03-16T11:20:32;16.40;43.14
76759;DHT22;65701;45.588;5.186;2023-03-16T11:22:59;16.43;43.13
76759;DHT22;65701;45.588;5.186;2023-03-16T11:25:39;16.40;43.27
76759;DHT22;65701;45.588;5.186;2023-03-16T11:28:32;16.25;42.15
76759;DHT22;65701;45.588;5.186;2023-03-16T11:33:43;16.34;41.68
76759;DHT22;65701;45.588;5.186;2023-03-16T11:39:02;16.28;41.21
76759;DHT22;65701;45.588;5.186;2023-03-16T11:41:35;16.33;41.25
76759;DHT22;65701;45.588;5.186;2023-03-16T11:44:15;16.40;41.41
76759;DHT22;65701;45.588;5.186;2023-03-16T11:47:13;16.41;41.75
76759;DHT22;65701;45.588;5.186;2023-03-16T11:50:09;16.55;41.81
76759;DHT22;65701;45.588;5.186;2023-03-16T11:53:00;16.57;41.99
76759;DHT22;65701;45.588;5.186;2023-03-16T12:05:57;16.92;42.19
76759;DHT22;65701;45.588;5.186;2023-03-16T12:14:12;17.06;41.56
76759;DHT22;65701;45.588;5.186;2023-03-16T12:19:38;17.16;41.73
76759;DHT22;65701;45.588;5.186;2023-03-16T12:22:27;17.17;41.41
76759;DHT22;65701;45.588;5.186;2023-03-16T12:24:53;17.23;41.90
76759;DHT22;65701;45.588;5.186;2023-03-16T12:27:24;17.23;41.73
76759;DHT22;65701;45.588;5.186;2023-03-16T12:32:41;17.23;41.43
76759;DHT22;65701;45.588;5.186;2023-03-16T12:35:48;17.15;41.36
76759;DHT22;65701;45.588;5.186;2023-03-16T12:41:25;17.13;41.08
76759;DHT22;65701;45.588;5.186;2023-03-16T12:49:24;17.16;41.62
76759;DHT22;65701;45.588;5.186;2023-03-16T12:52:02;17.15;41.63
76759;DHT22;65701;45.588;5.186;2023-03-16T12:54:28;17.13;41.62
76759;DHT22;65701;45.588;5.186;2023-03-16T12:57:05;17.16;41.58
76759;DHT22;65701;45.588;5.186;2023-03-16T12:59:43;17.19;42.28
76759;DHT22;65701;45.588;5.186;2023-03-16T13:04:43;17.26;41.82
76759;DHT22;65701;45.588;5.186;2023-03-16T13:07:22;17.19;41.87
76759;DHT22;65701;45.588;5.186;2023-03-16T13:10:08;17.12;40.89
76759;DHT22;65701;45.588;5.186;2023-03-16T13:12:39;17.13;40.65
76759;DHT22;65701;45.588;5.186;2023-03-16T13:17:49;17.22;40.75
76759;DHT22;65701;45.588;5.186;2023-03-16T13:20:26;17.22;40.81
76759;DHT22;65701;45.588;5.186;2023-03-16T13:25:43;17.13;40.62
76759;DHT22;65701;45.588;5.186;2023-03-16T13:28:13;17.09;40.22
76759;DHT22;65701;45.588;5.186;2023-03-16T13:30:46;17.06;40.19
76759;DHT22;65701;45.588;5.186;2023-03-16T13:33:33;17.00;40.15
76759;DHT22;65701;45.588;5.186;2023-03-16T13:36:04;16.95;40.25
76759;DHT22;65701;45.588;5.186;2023-03-16T13:38:30;16.97;40.46
76759;DHT22;65701;45.588;5.186;2023-03-16T13:41:04;16.95;40.49
76759;DHT22;65701;45.588;5.186;2023-03-16T13:43:38;16.92;40.43
76759;DHT22;65701;45.588;5.186;2023-03-16T13:46:18;16.85;40.41
76759;DHT22;65701;45.588;5.186;2023-03-16T13:48:46;16.86;40.44
76759;DHT22;65701;45.588;5.186;2023-03-16T13:51:13;16.88;40.52
76759;DHT22;65701;45.588;5.186;2023-03-16T13:53:41;16.86;40.54
76759;DHT22;65701;45.588;5.186;2023-03-16T13:56:12;16.92;40.66
76759;DHT22;65701;45.588;5.186;2023-03-16T13:58:39;16.85;40.73
76759;DHT22;65701;45.588;5.186;2023-03-16T14:01:33;16.90;41.06
76759;DHT22;65701;45.588;5.186;2023-03-16T14:04:01;16.95;41.16
76759;DHT22;65701;45.588;5.186;2023-03-16T14:06:33;16.96;41.26
76759;DHT22;65701;45.588;5.186;2023-03-16T14:09:20;16.97;41.47
76759;DHT22;65701;45.588;5.186;2023-03-16T14:11:46;17.00;41.61
76759;DHT22;65701;45.588;5.186;2023-03-16T14:14:22;17.05;41.41
76759;DHT22;65701;45.588;5.186;2023-03-16T14:16:48;17.06;41.40
76759;DHT22;65701;45.588;5.186;2023-03-16T14:19:25;17.07;41.64
76759;DHT22;65701;45.588;5.186;2023-03-16T14:22:03;17.13;41.37
76759;DHT22;65701;45.588;5.186;2023-03-16T14:24:32;17.15;41.42
76759;DHT22;65701;45.588;5.186;2023-03-16T14:29:43;17.10;41.25
76759;DHT22;65701;45.588;5.186;2023-03-16T14:32:28;17.05;41.06
76759;DHT22;65701;45.588;5.186;2023-03-16T14:35:12;17.06;41.59
76759;DHT22;65701;45.588;5.186;2023-03-16T14:37:39;17.06;41.87
76759;DHT22;65701;45.588;5.186;2023-03-16T14:40:29;17.12;41.88
76759;DHT22;65701;45.588;5.186;2023-03-16T14:42:56;17.06;41.92
76759;DHT22;65701;45.588;5.186;2023-03-16T14:45:28;17.05;41.98
76759;DHT22;65701;45.588;5.186;2023-03-16T14:48:02;17.03;41.89
76759;DHT22;65701;45.588;5.186;2023-03-16T14:50:28;17.00;42.06
76759;DHT22;65701;45.588;5.186;2023-03-16T14:52:54;17.03;42.23
76759;DHT22;65701;45.588;5.186;2023-03-16T14:55:21;17.00;42.12
76759;DHT22;65701;45.588;5.186;2023-03-16T14:57:50;16.90;42.08
76759;DHT22;65701;45.588;5.186;2023-03-16T15:00:18;16.93;42.11
76759;DHT22;65701;45.588;5.186;2023-03-16T15:03:12;16.95;42.02
76759;DHT22;65701;45.588;5.186;2023-03-16T15:05:41;16.93;42.13
76759;DHT22;65701;45.588;5.186;2023-03-16T15:08:15;16.93;42.04
76759;DHT22;65701;45.588;5.186;2023-03-16T15:10:42;16.82;41.77
76759;DHT22;65701;45.588;5.186;2023-03-16T15:13:17;16.85;41.93
76759;DHT22;65701;45.588;5.186;2023-03-16T15:16:04;16.88;41.87
76759;DHT22;65701;45.588;5.186;2023-03-16T15:18:30;16.85;41.67
76759;DHT22;65701;45.588;5.186;2023-03-16T15:20:57;16.79;41.59
76759;DHT22;65701;45.588;5.186;2023-03-16T15:23:23;16.75;41.52
76759;DHT22;65701;45.588;5.186;2023-03-16T15:25:49;16.71;41.58
76759;DHT22;65701;45.588;5.186;2023-03-16T15:28:18;16.68;41.55
76759;DHT22;65701;45.588;5.186;2023-03-16T15:30:47;16.69;41.73
76759;DHT22;65701;45.588;5.186;2023-03-16T15:33:12;16.67;41.75
76759;DHT22;65701;45.588;5.186;2023-03-16T15:35:39;16.68;41.59
76759;DHT22;65701;45.588;5.186;2023-03-16T15:38:10;16.65;41.58
76759;DHT22;65701;45.588;5.186;2023-03-16T15:40:38;16.68;42.14
76759;DHT22;65701;45.588;5.186;2023-03-16T15:43:15;16.64;42.23
76759;DHT22;65701;45.588;5.186;2023-03-16T15:45:42;16.64;41.92
76759;DHT22;65701;45.588;5.186;2023-03-16T15:48:09;16.65;42.00
76759;DHT22;65701;45.588;5.186;2023-03-16T15:50:36;16.60;42.12
76759;DHT22;65701;45.588;5.186;2023-03-16T15:53:15;16.62;42.34
76759;DHT22;65701;45.588;5.186;2023-03-16T15:55:45;16.64;42.56
76759;DHT22;65701;45.588;5.186;2023-03-16T15:58:21;16.61;42.65
76759;DHT22;65701;45.588;5.186;2023-03-16T16:00:50;16.58;42.47
76759;DHT22;65701;45.588;5.186;2023-03-16T16:03:18;16.52;42.35
76759;DHT22;65701;45.588;5.186;2023-03-16T16:05:44;16.43;42.27
76759;DHT22;65701;45.588;5.186;2023-03-16T16:08:09;16.38;42.08
76759;DHT22;65701;45.588;5.186;2023-03-16T16:10:35;16.35;42.03
76759;DHT22;65701;45.588;5.186;2023-03-16T16:13:01;16.35;42.39
76759;DHT22;65701;45.588;5.186;2023-03-16T16:15:31;16.33;42.70
76759;DHT22;65701;45.588;5.186;2023-03-16T16:17:59;16.17;42.62
76759;DHT22;65701;45.588;5.186;2023-03-16T16:20:29;16.23;42.88
76759;DHT22;65701;45.588;5.186;2023-03-16T16:22:55;16.14;42.99
76759;DHT22;65701;45.588;5.186;2023-03-16T16:25:27;16.10;43.06
76759;DHT22;65701;45.588;5.186;2023-03-16T16:27:54;16.06;43.02
76759;DHT22;65701;45.588;5.186;2023-03-16T16:30:23;16.02;43.15
76759;DHT22;65701;45.588;5.186;2023-03-16T16:32:51;15.89;43.10
76759;DHT22;65701;45.588;5.186;2023-03-16T16:35:22;15.89;42.97
76759;DHT22;65701;45.588;5.186;2023-03-16T16:37:49;15.85;43.04
76759;DHT22;65701;45.588;5.186;2023-03-16T16:40:20;15.81;43.23
76759;DHT22;65701;45.588;5.186;2023-03-16T16:42:48;15.75;43.10
76759;DHT22;65701;45.588;5.186;2023-03-16T16:45:22;15.75;43.32
76759;DHT22;65701;45.588;5.186;2023-03-16T16:47:50;15.72;43.53
76759;DHT22;65701;45.588;5.186;2023-03-16T16:50:19;15.68;43.74
76759;DHT22;65701;45.588;5.186;2023-03-16T16:52:46;15.58;43.55
76759;DHT22;65701;45.588;5.186;2023-03-16T16:55:12;15.59;43.69
76759;DHT22;65701;45.588;5.186;2023-03-16T16:57:39;15.55;43.81
76759;DHT22;65701;45.588;5.186;2023-03-16T17:00:14;15.42;43.86
76759;DHT22;65701;45.588;5.186;2023-03-16T17:02:46;15.42;43.91
76759;DHT22;65701;45.588;5.186;2023-03-16T17:05:21;15.45;43.94
76759;DHT22;65701;45.588;5.186;2023-03-16T17:07:47;15.38;43.92
76759;DHT22;65701;45.588;5.186;2023-03-16T17:10:15;15.38;43.95
76759;DHT22;65701;45.588;5.186;2023-03-16T17:12:42;15.19;43.91
76759;DHT22;65701;45.588;5.186;2023-03-16T17:15:31;15.16;43.88
76759;DHT22;65701;45.588;5.186;2023-03-16T17:18:09;15.04;43.89
76759;DHT22;65701;45.588;5.186;2023-03-16T17:20:36;15.06;43.87
76759;DHT22;65701;45.588;5.186;2023-03-16T17:23:35;14.93;43.91
76759;DHT22;65701;45.588;5.186;2023-03-16T17:26:20;14.97;44.14
76759;DHT22;65701;45.588;5.186;2023-03-16T17:31:38;14.92;44.05
76759;DHT22;65701;45.588;5.186;2023-03-16T17:34:15;14.75;44.12
76759;DHT22;65701;45.588;5.186;2023-03-16T17:36:42;14.85;44.15
76759;DHT22;65701;45.588;5.186;2023-03-16T17:39:27;14.82;44.28
76759;DHT22;65701;45.588;5.186;2023-03-16T17:44:24;14.73;44.29
76759;DHT22;65701;45.588;5.186;2023-03-16T17:46:50;14.68;44.22
76759;DHT22;65701;45.588;5.186;2023-03-16T17:49:17;14.61;44.25
76759;DHT22;65701;45.588;5.186;2023-03-16T17:51:44;14.58;44.38
76759;DHT22;65701;45.588;5.186;2023-03-16T17:54:10;14.54;44.35
76759;DHT22;65701;45.588;5.186;2023-03-16T17:56:36;14.55;44.40
76759;DHT22;65701;45.588;5.186;2023-03-16T17:59:06;14.54;44.34
76759;DHT22;65701;45.588;5.186;2023-03-16T18:01:32;14.52;44.32
76759;DHT22;65701;45.588;5.186;2023-03-16T18:04:02;14.52;44.44
76759;DHT22;65701;45.588;5.186;2023-03-16T18:06:28;14.51;44.56
76759;DHT22;65701;45.588;5.186;2023-03-16T18:08:55;14.41;44.51
76759;DHT22;65701;45.588;5.186;2023-03-16T18:11:24;14.41;44.46
76759;DHT22;65701;45.588;5.186;2023-03-16T18:13:52;14.37;44.45
76759;DHT22;65701;45.588;5.186;2023-03-16T18:16:21;14.37;44.47
76759;DHT22;65701;45.588;5.186;2023-03-16T18:18:50;14.35;44.51
76759;DHT22;65701;45.588;5.186;2023-03-16T18:21:23;14.27;44.60
76759;DHT22;65701;45.588;5.186;2023-03-16T18:23:51;14.28;44.66
76759;DHT22;65701;45.588;5.186;2023-03-16T18:26:18;14.25;44.68
76759;DHT22;65701;45.588;5.186;2023-03-16T18:28:44;14.24;44.61
76759;DHT22;65701;45.588;5.186;2023-03-16T18:31:20;14.12;44.71
76759;DHT22;65701;45.588;5.186;2023-03-16T18:33:53;14.18;44.69
76759;DHT22;65701;45.588;5.186;2023-03-16T18:36:27;14.16;44.75
76759;DHT22;65701;45.588;5.186;2023-03-16T18:38:54;14.12;44.67
76759;DHT22;65701;45.588;5.186;2023-03-16T18:41:26;14.09;44.64
76759;DHT22;65701;45.588;5.186;2023-03-16T18:43:54;14.10;44.73
76759;DHT22;65701;45.588;5.186;2023-03-16T18:46:47;14.09;44.79
76759;DHT22;65701;45.588;5.186;2023-03-16T18:49:17;14.06;44.79
76759;DHT22;65701;45.588;5.186;2023-03-16T18:51:47;14.03;44.72
76759;DHT22;65701;45.588;5.186;2023-03-16T18:54:28;14.00;44.80
76759;DHT22;65701;45.588;5.186;2023-03-16T18:56:59;13.99;44.82
76759;DHT22;65701;45.588;5.186;2023-03-16T18:59:28;13.86;44.83
76759;DHT22;65701;45.588;5.186;2023-03-16T19:01:54;13.91;44.82
76759;DHT22;65701;45.588;5.186;2023-03-16T19:04:24;13.90;44.90
76759;DHT22;65701;45.588;5.186;2023-03-16T19:06:51;13.85;44.88
76759;DHT22;65701;45.588;5.186;2023-03-16T19:09:21;13.79;44.89
76759;DHT22;65701;45.588;5.186;2023-03-16T19:11:48;13.83;44.92
76759;DHT22;65701;45.588;5.186;2023-03-16T19:14:22;13.82;45.00
76759;DHT22;65701;45.588;5.186;2023-03-16T19:16:49;13.76;45.08
76759;DHT22;65701;45.588;5.186;2023-03-16T19:19:16;13.78;45.15
76759;DHT22;65701;45.588;5.186;2023-03-16T19:21:46;13.73;45.33
76759;DHT22;65701;45.588;5.186;2023-03-16T19:24:26;13.69;45.49
76759;DHT22;65701;45.588;5.186;2023-03-16T19:26:52;13.61;45.61
76759;DHT22;65701;45.588;5.186;2023-03-16T19:29:22;13.68;45.87
76759;DHT22;65701;45.588;5.186;2023-03-16T19:31:47;13.55;45.97
76759;DHT22;65701;45.588;5.186;2023-03-16T19:34:16;13.59;46.12
76759;DHT22;65701;45.588;5.186;2023-03-16T19:36:42;13.54;46.28
76759;DHT22;65701;45.588;5.186;2023-03-16T19:39:11;13.51;46.54
76759;DHT22;65701;45.588;5.186;2023-03-16T19:41:37;13.51;46.80
76759;DHT22;65701;45.588;5.186;2023-03-16T19:44:06;13.42;46.98
76759;DHT22;65701;45.588;5.186;2023-03-16T19:46:32;13.45;47.23
76759;DHT22;65701;45.588;5.186;2023-03-16T19:48:58;13.37;47.41
76759;DHT22;65701;45.588;5.186;2023-03-16T19:51:24;13.40;47.68
76759;DHT22;65701;45.588;5.186;2023-03-16T19:53:53;13.37;47.81
76759;DHT22;65701;45.588;5.186;2023-03-16T19:56:19;13.37;47.95
76759;DHT22;65701;45.588;5.186;2023-03-16T19:58:48;13.25;48.00
76759;DHT22;65701;45.588;5.186;2023-03-16T20:01:29;13.25;48.12
76759;DHT22;65701;45.588;5.186;2023-03-16T20:03:55;13.24;48.30
76759;DHT22;65701;45.588;5.186;2023-03-16T20:06:22;13.23;48.39
76759;DHT22;65701;45.588;5.186;2023-03-16T20:08:49;13.15;48.37
76759;DHT22;65701;45.588;5.186;2023-03-16T20:11:28;13.13;48.50
76759;DHT22;65701;45.588;5.186;2023-03-16T20:13:55;13.06;48.56
76759;DHT22;65701;45.588;5.186;2023-03-16T20:16:25;13.07;48.70
76759;DHT22;65701;45.588;5.186;2023-03-16T20:18:54;13.00;48.77
76759;DHT22;65701;45.588;5.186;2023-03-16T20:21:20;12.96;48.87
76759;DHT22;65701;45.588;5.186;2023-03-16T20:23:46;12.85;48.98
76759;DHT22;65701;45.588;5.186;2023-03-16T20:26:23;12.92;49.13
76759;DHT22;65701;45.588;5.186;2023-03-16T20:28:51;12.89;49.18
76759;DHT22;65701;45.588;5.186;2023-03-16T20:31:23;12.83;49.22
76759;DHT22;65701;45.588;5.186;2023-03-16T20:33:51;12.80;49.27
76759;DHT22;65701;45.588;5.186;2023-03-16T20:36:18;12.82;49.28
76759;DHT22;65701;45.588;5.186;2023-03-16T20:38:44;12.80;49.31
76759;DHT22;65701;45.588;5.186;2023-03-16T20:41:24;12.73;49.38
76759;DHT22;65701;45.588;5.186;2023-03-16T20:43:51;12.75;49.55
76759;DHT22;65701;45.588;5.186;2023-03-16T20:46:20;12.70;49.52
76759;DHT22;65701;45.588;5.186;2023-03-16T20:48:46;12.55;49.50
76759;DHT22;65701;45.588;5.186;2023-03-16T20:51:15;12.52;49.30
76759;DHT22;65701;45.588;5.186;2023-03-16T20:53:43;12.58;48.83
76759;DHT22;65701;45.588;5.186;2023-03-16T20:56:28;12.56;48.39
76759;DHT22;65701;45.588;5.186;2023-03-16T20:58:55;12.53;48.19
76759;DHT22;65701;45.588;5.186;2023-03-16T21:01:22;12.48;48.01
76759;DHT22;65701;45.588;5.186;2023-03-16T21:03:51;12.48;47.90
76759;DHT22;65701;45.588;5.186;2023-03-16T21:06:27;12.51;47.86
76759;DHT22;65701;45.588;5.186;2023-03-16T21:08:55;12.45;47.92
76759;DHT22;65701;45.588;5.186;2023-03-16T21:11:28;12.37;47.97
76759;DHT22;65701;45.588;5.186;2023-03-16T21:13:56;12.35;48.05
76759;DHT22;65701;45.588;5.186;2023-03-16T21:16:21;12.45;48.19
76759;DHT22;65701;45.588;5.186;2023-03-16T21:18:47;12.38;48.37
76759;DHT22;65701;45.588;5.186;2023-03-16T21:21:15;12.41;48.56
76759;DHT22;65701;45.588;5.186;2023-03-16T21:23:42;12.40;48.82
76759;DHT22;65701;45.588;5.186;2023-03-16T21:26:14;12.34;49.04
76759;DHT22;65701;45.588;5.186;2023-03-16T21:28:41;12.30;49.25
76759;DHT22;65701;45.588;5.186;2023-03-16T21:31:07;12.28;49.42
76759;DHT22;65701;45.588;5.186;2023-03-16T21:33:35;12.24;49.59
76759;DHT22;65701;45.588;5.186;2023-03-16T21:36:04;12.21;49.65
76759;DHT22;65701;45.588;5.186;2023-03-16T21:38:31;12.23;49.71
76759;DHT22;65701;45.588;5.186;2023-03-16T21:40:57;12.17;49.96
76759;DHT22;65701;45.588;5.186;2023-03-16T21:43:24;12.17;50.19
76759;DHT22;65701;45.588;5.186;2023-03-16T21:45:50;12.08;50.32
76759;DHT22;65701;45.588;5.186;2023-03-16T21:48:22;12.12;50.58
76759;DHT22;65701;45.588;5.186;2023-03-16T21:50:49;12.07;50.73
76759;DHT22;65701;45.588;5.186;2023-03-16T21:53:27;12.07;51.01
76759;DHT22;65701;45.588;5.186;2023-03-16T21:55:54;12.07;51.14
76759;DHT22;65701;45.588;5.186;2023-03-16T21:58:21;11.97;51.28
76759;DHT22;65701;45.588;5.186;2023-03-16T22:00:49;11.96;51.47
76759;DHT22;65701;45.588;5.186;2023-03-16T22:03:30;12.01;51.70
76759;DHT22;65701;45.588;5.186;2023-03-16T22:05:58;11.97;51.82
76759;DHT22;65701;45.588;5.186;2023-03-16T22:08:28;11.96;52.06
76759;DHT22;65701;45.588;5.186;2023-03-16T22:10:55;11.86;52.25
76759;DHT22;65701;45.588;5.186;2023-03-16T22:13:22;11.82;52.38
76759;DHT22;65701;45.588;5.186;2023-03-16T22:15:49;11.91;52.55
76759;DHT22;65701;45.588;5.186;2023-03-16T22:18:25;11.86;52.65
76759;DHT22;65701;45.588;5.186;2023-03-16T22:20:53;11.85;52.74
76759;DHT22;65701;45.588;5.186;2023-03-16T22:23:33;11.89;52.99
76759;DHT22;65701;45.588;5.186;2023-03-16T22:26:01;11.86;53.10
76759;DHT22;65701;45.588;5.186;2023-03-16T22:28:28;11.82;53.35
76759;DHT22;65701;45.588;5.186;2023-03-16T22:30:57;11.80;53.48
76759;DHT22;65701;45.588;5.186;2023-03-16T22:33:31;11.86;53.64
76759;DHT22;65701;45.588;5.186;2023-03-16T22:36:11;11.80;53.84
76759;DHT22;65701;45.588;5.186;2023-03-16T22:38:39;11.80;54.08
76759;DHT22;65701;45.588;5.186;2023-03-16T22:41:06;11.69;54.30
76759;DHT22;65701;45.588;5.186;2023-03-16T22:43:34;11.63;54.52
76759;DHT22;65701;45.588;5.186;2023-03-16T22:46:02;11.66;54.87
76759;DHT22;65701;45.588;5.186;2023-03-16T22:48:29;11.66;55.14
76759;DHT22;65701;45.588;5.186;2023-03-16T22:50:57;11.65;55.33
76759;DHT22;65701;45.588;5.186;2023-03-16T22:53:38;11.61;55.52
76759;DHT22;65701;45.588;5.186;2023-03-16T22:56:06;11.55;55.72
76759;DHT22;65701;45.588;5.186;2023-03-16T22:58:43;11.49;55.96
76759;DHT22;65701;45.588;5.186;2023-03-16T23:01:19;11.65;56.10
76759;DHT22;65701;45.588;5.186;2023-03-16T23:03:48;11.65;56.23